Air Navigation Services of Czech Republic
Airport: LKKV Updated:  20.05.2022 20:00:32  UTC
 METAR LKKV 20.05. 20:00 ...
METAR LKKV 202000Z 23003KT 150V290 CAVOK 16/14 Q1015=
 TAF LKKV 20.05. 17:00 ...
TAF LKKV 201700Z 2018/2200 27008KT CAVOK      TEMPO 2018/2102 28012G28KT 5000 SHRA SCT025CB      PROB40 TEMPO 2018/2020 25016G38KT 2000 TSRA SCT020CB      BECMG 2102/2103 9999 BKN022      TEMPO 2102/2118 30014G30KT      BECMG 2118/2120 CAVOK=